Time;durP1;ratioP1;P1;durP2;ratioP2;P2;SDS_P1;SDS_P2;PMS_P1;PMS_P2;Temp;Humidity;BMP_temperature;BMP_pressure;BME280_temperature;BME280_humidity;BME280_pressure;Samples;Min_cycle;Max_cycle;Signal;HPM_P1;HPM_P2
2022/02/28 00:00:16;;;;;;;21.90;7.07;;;;;;;2.15;100.00;103446.66;4733057;30;20045;-78
2022/02/28 00:02:42;;;;;;;14.27;6.63;;;;;;;2.17;100.00;103437.69;4734786;30;20475;-78
2022/02/28 00:05:08;;;;;;;22.15;6.32;;;;;;;2.19;100.00;103435.81;4732508;30;20132;-79
2022/02/28 00:07:35;;;;;;;18.25;6.00;;;;;;;2.20;100.00;103431.34;4734168;30;20131;-79
2022/02/28 00:10:00;;;;;;;19.50;6.40;;;;;;;2.05;100.00;103398.47;4734261;30;20040;-78
2022/02/28 00:12:26;;;;;;;18.42;6.22;;;;;;;2.26;100.00;103436.34;4735543;30;20101;-79
2022/02/28 00:14:52;;;;;;;23.75;6.25;;;;;;;2.29;100.00;103439.72;4741107;30;20495;-79
2022/02/28 00:17:17;;;;;;;17.90;6.15;;;;;;;2.24;100.00;103419.63;4748836;30;20349;-79
2022/02/28 00:19:42;;;;;;;15.77;5.88;;;;;;;2.33;100.00;103425.31;4718975;30;20094;-79
2022/02/28 00:22:08;;;;;;;16.85;6.55;;;;;;;2.29;100.00;103406.97;4733477;30;20040;-79
2022/02/28 00:24:33;;;;;;;17.25;5.90;;;;;;;2.36;100.00;103416.34;4746290;30;20041;-79
2022/02/28 00:26:58;;;;;;;19.58;6.57;;;;;;;2.29;100.00;103399.84;4733549;30;20048;-78
2022/02/28 00:29:24;;;;;;;21.63;5.72;;;;;;;2.35;100.00;103409.28;4732612;30;20433;-80
2022/02/28 00:31:49;;;;;;;24.10;6.53;;;;;;;2.34;100.00;103399.59;4766366;30;20055;-79
2022/02/28 00:34:14;;;;;;;20.23;5.63;;;;;;;2.33;100.00;103392.56;4753308;30;20570;-79
2022/02/28 00:36:40;;;;;;;18.77;5.32;;;;;;;2.33;100.00;103384.59;4739316;30;20029;-79
2022/02/28 00:39:06;;;;;;;17.88;5.15;;;;;;;2.29;100.00;103378.59;4737304;30;20068;-79
2022/02/28 00:41:32;;;;;;;16.58;4.85;;;;;;;2.52;100.00;103400.44;4746971;30;20040;-79
2022/02/28 00:43:58;;;;;;;19.65;5.10;;;;;;;2.43;100.00;103387.63;4751537;30;20051;-80
2022/02/28 00:46:23;;;;;;;13.30;5.03;;;;;;;2.45;100.00;103386.63;4768795;30;20039;-79
2022/02/28 00:48:49;;;;;;;14.50;5.10;;;;;;;2.45;100.00;103393.69;4754963;30;20032;-79
2022/02/28 00:51:14;;;;;;;17.90;5.15;;;;;;;2.50;100.00;103399.66;4765093;30;20065;-79
2022/02/28 00:53:40;;;;;;;19.70;4.78;;;;;;;2.62;100.00;103416.75;4755437;30;20055;-79
2022/02/28 00:56:06;;;;;;;18.38;4.82;;;;;;;2.64;100.00;103420.16;4750904;30;20040;-80
2022/02/28 00:58:31;;;;;;;16.25;4.85;;;;;;;2.64;100.00;103421.00;4741761;30;20071;-79
2022/02/28 01:00:57;;;;;;;21.05;6.15;;;;;;;2.68;100.00;103422.59;4750888;30;20052;-79
2022/02/28 01:03:24;;;;;;;20.63;5.13;;;;;;;2.68;100.00;103417.28;4750762;30;20090;-79
2022/02/28 01:05:49;;;;;;;15.10;4.80;;;;;;;2.65;100.00;103417.44;4737674;30;20036;-79
2022/02/28 01:08:15;;;;;;;18.60;5.28;;;;;;;2.68;100.00;103414.59;4747939;30;20036;-79
2022/02/28 01:10:40;;;;;;;21.98;5.45;;;;;;;2.59;100.00;103396.50;4754677;30;20044;-80
2022/02/28 01:13:10;;;;;;;17.55;5.40;;;;;;;2.71;100.00;103410.91;4747228;30;20064;-80
2022/02/28 01:15:37;;;;;;;19.23;5.43;;;;;;;2.69;100.00;103410.16;4735964;30;20024;-79
2022/02/28 01:18:03;;;;;;;14.77;5.10;;;;;;;2.78;100.00;103418.47;4750303;30;20044;-79
2022/02/28 01:20:28;;;;;;;17.85;5.18;;;;;;;2.76;100.00;103403.53;4745106;30;20033;-79
2022/02/28 01:22:54;;;;;;;15.52;4.88;;;;;;;2.77;100.00;103416.75;4776245;30;20046;-80
2022/02/28 01:25:19;;;;;;;14.88;5.32;;;;;;;2.75;100.00;103407.16;4767863;30;20036;-79
2022/02/28 01:27:45;;;;;;;20.52;5.60;;;;;;;2.68;100.00;103395.13;4741704;30;20060;-80
2022/02/28 01:30:11;;;;;;;18.52;5.70;;;;;;;2.70;100.00;103401.22;4753293;30;20036;-80
2022/02/28 01:32:36;;;;;;;20.90;5.90;;;;;;;2.69;100.00;103408.34;4747425;30;20044;-80
2022/02/28 01:35:03;;;;;;;18.75;5.82;;;;;;;2.66;100.00;103408.50;4736445;30;20032;-79
2022/02/28 01:37:28;;;;;;;15.52;5.53;;;;;;;2.62;100.00;103414.94;4749373;30;20131;-79
2022/02/28 01:39:53;;;;;;;21.05;5.70;;;;;;;2.59;100.00;103407.97;4751263;30;20131;-79
2022/02/28 01:42:19;;;;;;;14.85;5.63;;;;;;;2.49;100.00;103398.78;4750757;30;20452;-80
2022/02/28 01:44:44;;;;;;;15.38;5.38;;;;;;;2.50;100.00;103391.66;4754803;30;20044;-79
2022/02/28 01:47:10;;;;;;;17.98;5.63;;;;;;;2.54;100.00;103403.84;4749736;30;20052;-79
2022/02/28 01:49:36;;;;;;;19.33;5.72;;;;;;;2.52;100.00;103390.66;4751003;30;20052;-79
2022/02/28 01:52:03;;;;;;;17.67;5.72;;;;;;;2.46;100.00;103383.00;4736296;30;20448;-79
2022/02/28 01:54:28;;;;;;;16.30;5.60;;;;;;;2.52;100.00;103395.13;4736884;30;20068;-80
2022/02/28 01:56:54;;;;;;;24.20;5.85;;;;;;;2.52;100.00;103397.78;4750897;30;20182;-80
2022/02/28 01:59:20;;;;;;;17.75;5.95;;;;;;;2.48;100.00;103382.91;4754283;30;20028;-79
2022/02/28 02:01:45;;;;;;;17.38;6.22;;;;;;;2.55;100.00;103394.91;4749455;30;20379;-79
2022/02/28 02:04:11;;;;;;;16.88;5.93;;;;;;;2.58;100.00;103397.41;4754434;30;20044;-79
2022/02/28 02:06:36;;;;;;;19.65;6.72;;;;;;;2.61;100.00;103394.59;4735818;30;20047;-79
2022/02/28 02:09:03;;;;;;;16.90;5.75;;;;;;;2.62;100.00;103393.69;4737721;30;20534;-79
2022/02/28 02:11:29;;;;;;;18.17;5.65;;;;;;;2.63;100.00;103392.72;4754080;30;20440;-80
2022/02/28 02:13:55;;;;;;;22.08;5.97;;;;;;;2.62;100.00;103385.69;4748446;30;20037;-79
2022/02/28 02:16:21;;;;;;;17.67;4.93;;;;;;;2.58;100.00;103370.84;4740900;30;20258;-79
2022/02/28 02:18:46;;;;;;;19.35;5.93;;;;;;;2.62;100.00;103379.53;4736121;30;20479;-80
2022/02/28 02:21:12;;;;;;;21.20;6.03;;;;;;;2.59;100.00;103383.22;4741274;30;20040;-80
2022/02/28 02:23:38;;;;;;;20.15;5.50;;;;;;;2.54;100.00;103378.13;4740763;30;20063;-79
2022/02/28 02:26:04;;;;;;;19.45;6.65;;;;;;;2.51;100.00;103383.59;4735399;30;20378;-80
2022/02/28 02:28:29;;;;;;;20.33;6.95;;;;;;;2.52;100.00;103374.72;4741322;30;20056;-79
2022/02/28 02:30:57;;;;;;;22.60;6.18;;;;;;;2.52;100.00;103376.50;4768365;30;20367;-79
2022/02/28 02:33:24;;;;;;;23.92;6.70;;;;;;;2.50;100.00;103378.38;4759718;30;20032;-80
2022/02/28 02:35:55;;;;;;;20.25;6.18;;;;;;;2.53;100.00;103372.91;4768205;29;20043;-79
2022/02/28 02:38:22;;;;;;;17.58;6.72;;;;;;;2.54;100.00;103377.25;4749760;30;20032;-79
2022/02/28 02:40:49;;;;;;;19.48;6.95;;;;;;;2.50;100.00;103365.94;4749363;30;20368;-79
2022/02/28 02:43:14;;;;;;;19.20;6.43;;;;;;;2.51;100.00;103342.88;4749398;30;20071;-79
2022/02/28 02:45:40;;;;;;;23.92;7.57;;;;;;;2.60;100.00;103366.31;4735222;30;20079;-80
2022/02/28 02:48:13;;;;;;;19.65;7.20;;;;;;;2.61;100.00;103357.38;4736058;30;20036;-79
2022/02/28 02:50:39;;;;;;;17.63;7.30;;;;;;;2.65;100.00;103366.94;4734372;30;20039;-79
2022/02/28 02:53:04;;;;;;;23.98;7.55;;;;;;;2.59;100.00;103348.66;4735065;30;20036;-79
2022/02/28 02:55:30;;;;;;;22.35;7.25;;;;;;;2.68;100.00;103360.56;4736619;30;20040;-79
2022/02/28 02:57:55;;;;;;;22.92;7.68;;;;;;;2.69;100.00;103355.16;4735348;30;20423;-79
2022/02/28 03:00:21;;;;;;;18.88;7.38;;;;;;;2.66;100.00;103343.84;4749375;30;20342;-80
2022/02/28 03:02:46;;;;;;;22.42;7.95;;;;;;;2.67;100.00;103351.72;4733970;30;20096;-79
2022/02/28 03:05:11;;;;;;;30.52;8.43;;;;;;;2.54;100.00;103321.44;4735260;30;20118;-79
2022/02/28 03:07:37;;;;;;;22.45;7.35;;;;;;;2.73;100.00;103355.84;4734982;30;20105;-79
2022/02/28 03:10:03;;;;;;;29.92;8.27;;;;;;;2.72;100.00;103354.16;4733843;30;20365;-79
2022/02/28 03:12:28;;;;;;;23.38;7.97;;;;;;;2.74;100.00;103349.59;4751785;30;20054;-79
2022/02/28 03:14:54;;;;;;;24.80;8.50;;;;;;;2.73;100.00;103350.53;4734540;30;20422;-79
2022/02/28 03:17:19;;;;;;;18.50;8.38;;;;;;;2.78;100.00;103348.47;4751443;30;20041;-80
2022/02/28 03:19:44;;;;;;;24.20;8.23;;;;;;;2.76;100.00;103351.22;4753685;30;20427;-79
2022/02/28 03:22:10;;;;;;;21.88;8.50;;;;;;;2.77;100.00;103352.06;4766185;29;20097;-79
2022/02/28 03:24:35;;;;;;;23.85;8.15;;;;;;;2.79;100.00;103356.38;4748307;29;20372;-80
2022/02/28 03:27:01;;;;;;;16.58;8.20;;;;;;;2.74;100.00;103337.16;4719657;30;20127;-79
2022/02/28 03:29:26;;;;;;;23.95;8.15;;;;;;;2.82;100.00;103350.88;4733882;30;20029;-79
2022/02/28 03:31:52;;;;;;;18.50;7.57;;;;;;;2.85;100.00;103346.31;4748744;30;20483;-79
2022/02/28 03:34:17;;;;;;;22.38;8.02;;;;;;;2.87;100.00;103347.09;4733638;30;20119;-79
2022/02/28 03:36:43;;;;;;;22.10;8.13;;;;;;;2.80;100.00;103331.50;4748608;30;20047;-79
2022/02/28 03:39:08;;;;;;;26.20;7.88;;;;;;;2.90;100.00;103346.94;4748800;30;20087;-79
2022/02/28 03:41:33;;;;;;;21.50;7.80;;;;;;;2.83;100.00;103326.00;4743946;30;20035;-79
2022/02/28 03:43:59;;;;;;;23.50;7.50;;;;;;;2.86;100.00;103343.59;4757264;30;20464;-80
2022/02/28 03:46:24;;;;;;;23.70;8.05;;;;;;;2.70;100.00;103302.84;4765802;30;20037;-79
2022/02/28 03:48:49;;;;;;;24.85;8.13;;;;;;;2.85;100.00;103333.91;4748518;30;20119;-79
2022/02/28 03:51:15;;;;;;;18.25;7.60;;;;;;;2.82;100.00;103323.44;4751516;30;20336;-79
2022/02/28 03:53:40;;;;;;;19.42;8.02;;;;;;;2.86;100.00;103326.78;4749113;30;20123;-79
2022/02/28 03:56:06;;;;;;;24.08;7.68;;;;;;;2.76;100.00;103319.31;4753304;30;20103;-79
2022/02/28 03:58:37;;;;;;;24.38;9.13;;;;;;;2.76;100.00;103318.47;4758740;30;20044;-80
2022/02/28 04:01:03;;;;;;;19.50;8.02;;;;;;;2.84;100.00;103326.84;4751647;30;20067;-80
2022/02/28 04:03:29;;;;;;;26.05;8.13;;;;;;;2.81;100.00;103322.59;4761053;30;20036;-81
2022/02/28 04:05:54;;;;;;;25.40;7.45;;;;;;;2.81;100.00;103319.03;4746824;30;20040;-79
2022/02/28 04:08:19;;;;;;;23.17;7.65;;;;;;;2.74;100.00;103310.56;4749881;30;20040;-80
2022/02/28 04:10:45;;;;;;;19.92;7.20;;;;;;;2.82;100.00;103324.28;4756942;30;20043;-80
2022/02/28 04:13:10;;;;;;;25.98;7.28;;;;;;;2.80;100.00;103315.53;4743196;30;20387;-80
2022/02/28 04:15:35;;;;;;;23.65;7.97;;;;;;;2.80;100.00;103315.53;4751794;30;20122;-79
2022/02/28 04:18:01;;;;;;;23.60;7.07;;;;;;;2.80;100.00;103312.88;4743353;30;20083;-80
2022/02/28 04:20:26;;;;;;;17.73;7.10;;;;;;;2.81;100.00;103303.97;4769514;30;20040;-79
2022/02/28 04:22:52;;;;;;;19.00;6.80;;;;;;;2.79;100.00;103302.34;4751995;30;20036;-79
2022/02/28 04:25:17;;;;;;;27.58;6.85;;;;;;;2.83;100.00;103302.06;4753048;30;20031;-79
2022/02/28 04:27:43;;;;;;;21.15;6.95;;;;;;;2.86;100.00;103294.88;4754968;30;20048;-79
2022/02/28 04:30:09;;;;;;;25.13;7.55;;;;;;;2.86;100.00;103289.56;4765247;30;20028;-79
2022/02/28 04:32:34;;;;;;;21.65;7.65;;;;;;;2.78;100.00;103280.22;4769455;30;20048;-79
2022/02/28 04:35:00;;;;;;;22.45;7.28;;;;;;;2.89;100.00;103286.72;4766010;30;20044;-79
2022/02/28 04:37:25;;;;;;;20.33;7.35;;;;;;;2.81;100.00;103274.72;4766309;30;20040;-80
2022/02/28 04:39:50;;;;;;;22.63;7.95;;;;;;;2.92;100.00;103281.22;4769126;30;20455;-79
2022/02/28 04:42:16;;;;;;;21.45;7.45;;;;;;;2.92;100.00;103278.56;4753593;30;20359;-79
2022/02/28 04:44:41;;;;;;;23.70;8.00;;;;;;;2.93;100.00;103272.31;4766776;30;20514;-80
2022/02/28 04:47:07;;;;;;;26.55;7.72;;;;;;;2.95;100.00;103275.75;4749213;30;20067;-80
2022/02/28 04:49:33;;;;;;;27.38;8.50;;;;;;;2.94;100.00;103274.00;4754628;30;20104;-79
2022/02/28 04:51:58;;;;;;;27.98;7.85;;;;;;;2.95;100.00;103278.41;4762004;30;20040;-81
2022/02/28 04:54:24;;;;;;;22.85;7.85;;;;;;;2.95;100.00;103275.75;4772367;30;20040;-79
2022/02/28 04:56:49;;;;;;;22.63;7.40;;;;;;;2.93;100.00;103267.84;4751181;30;20040;-79
2022/02/28 04:59:15;;;;;;;30.35;7.65;;;;;;;2.93;100.00;103269.63;4757955;30;20469;-79
2022/02/28 05:01:40;;;;;;;21.80;7.22;;;;;;;2.89;100.00;103268.09;4736394;30;20052;-79
2022/02/28 05:04:06;;;;;;;18.30;7.50;;;;;;;2.93;100.00;103264.31;4740564;30;20036;-80
2022/02/28 05:06:32;;;;;;;23.42;7.22;;;;;;;2.96;100.00;103266.81;4755328;30;20044;-80
2022/02/28 05:08:58;;;;;;;22.83;7.00;;;;;;;2.98;100.00;103271.09;4751362;30;20545;-79
2022/02/28 05:11:23;;;;;;;28.60;7.20;;;;;;;3.00;100.00;103263.88;4755547;30;20499;-79
2022/02/28 05:13:48;;;;;;;20.98;6.93;;;;;;;2.92;100.00;103250.16;4738861;30;20036;-80
2022/02/28 05:16:14;;;;;;;24.95;7.93;;;;;;;3.00;100.00;103268.34;4755998;30;20088;-79
2022/02/28 05:18:39;;;;;;;22.48;8.07;;;;;;;2.98;100.00;103259.56;4752897;30;20611;-80
2022/02/28 05:21:04;;;;;;;22.80;7.38;;;;;;;3.03;100.00;103269.00;4752702;30;20098;-79
2022/02/28 05:23:30;;;;;;;21.20;7.20;;;;;;;3.03;100.00;103257.50;4748904;30;20040;-80
2022/02/28 05:25:55;;;;;;;26.85;7.57;;;;;;;3.06;100.00;103266.16;4736278;30;20682;-80
2022/02/28 05:28:21;;;;;;;27.13;7.43;;;;;;;3.06;100.00;103263.50;4737349;30;20086;-81
2022/02/28 05:30:47;;;;;;;21.70;6.78;;;;;;;3.02;100.00;103253.16;4734449;30;20095;-79
2022/02/28 05:33:16;;;;;;;26.58;7.43;;;;;;;3.11;100.00;103265.03;4754801;30;20095;-80
2022/02/28 05:35:42;;;;;;;26.42;6.93;;;;;;;3.02;100.00;103246.03;4768986;30;20036;-79
2022/02/28 05:38:08;;;;;;;23.30;7.43;;;;;;;3.12;100.00;103266.78;4752369;30;20061;-81
2022/02/28 05:40:35;;;;;;;21.85;6.88;;;;;;;3.12;100.00;103264.97;4755012;30;20550;-80
2022/02/28 05:43:00;;;;;;;25.30;7.90;;;;;;;3.09;100.00;103257.16;4751225;30;20071;-81
2022/02/28 05:45:26;;;;;;;28.45;7.35;;;;;;;3.13;100.00;103258.69;4763469;29;20059;-80
2022/02/28 05:47:51;;;;;;;23.30;8.13;;;;;;;3.14;100.00;103260.38;4754096;30;20036;-81
2022/02/28 05:50:16;;;;;;;19.58;7.65;;;;;;;3.14;100.00;103260.38;4767165;29;20051;-80
2022/02/28 05:52:45;;;;;;;25.83;7.70;;;;;;;3.15;100.00;103267.44;4770236;30;20036;-80
2022/02/28 05:55:11;;;;;;;23.25;7.43;;;;;;;3.10;100.00;103264.19;4764010;30;20029;-81
2022/02/28 05:57:38;;;;;;;24.23;7.47;;;;;;;3.17;100.00;103267.34;4761687;30;20036;-80
2022/02/28 06:00:05;;;;;;;21.20;7.05;;;;;;;3.17;100.00;103265.53;4758832;30;20044;-81
2022/02/28 06:02:31;;;;;;;21.75;7.47;;;;;;;3.13;100.00;103256.03;4753863;30;20043;-81
2022/02/28 06:04:56;;;;;;;26.20;7.22;;;;;;;3.17;100.00;103265.53;4752993;30;20055;-81
2022/02/28 06:07:22;;;;;;;28.88;7.38;;;;;;;3.10;100.00;103245.56;4753518;30;20040;-81
2022/02/28 06:09:47;;;;;;;20.42;6.63;;;;;;;3.18;100.00;103259.28;4755914;30;20036;-81
2022/02/28 06:12:13;;;;;;;23.95;7.40;;;;;;;3.19;100.00;103258.34;4766688;30;20113;-81
2022/02/28 06:14:38;;;;;;;26.88;6.85;;;;;;;3.17;100.00;103260.22;4754373;30;20032;-81
2022/02/28 06:17:03;;;;;;;16.33;6.53;;;;;;;3.18;100.00;103264.63;4765767;30;20044;-81
2022/02/28 06:19:29;;;;;;;22.60;6.35;;;;;;;3.12;100.00;103248.16;4751548;30;20051;-80
2022/02/28 06:21:54;;;;;;;24.63;7.00;;;;;;;3.15;100.00;103261.28;4759697;30;20047;-80
2022/02/28 06:24:20;;;;;;;27.50;7.30;;;;;;;3.15;100.00;103261.28;4764092;30;20483;-81
2022/02/28 06:26:45;;;;;;;21.02;6.80;;;;;;;3.13;100.00;103261.34;4746726;30;20083;-81
2022/02/28 06:29:11;;;;;;;17.55;6.18;;;;;;;3.13;100.00;103256.03;4742455;30;20048;-79
2022/02/28 06:31:43;;;;;;;22.42;7.03;;;;;;;3.11;100.00;103252.59;4745258;30;20135;-80
2022/02/28 06:34:09;;;;;;;25.95;7.22;;;;;;;3.15;100.00;103264.78;4747438;30;20033;-80
2022/02/28 06:36:34;;;;;;;24.73;7.22;;;;;;;3.16;100.00;103268.31;4739582;30;20028;-81
2022/02/28 06:39:00;;;;;;;23.25;6.82;;;;;;;3.19;100.00;103268.97;4751287;30;21899;-80
2022/02/28 06:41:25;;;;;;;24.60;6.63;;;;;;;3.21;100.00;103264.44;4736659;30;20100;-81
2022/02/28 06:43:50;;;;;;;17.80;6.60;;;;;;;3.21;100.00;103259.13;4737789;30;20044;-80
2022/02/28 06:46:16;;;;;;;20.65;6.57;;;;;;;3.25;100.00;103268.63;4748817;30;20047;-79
2022/02/28 06:48:41;;;;;;;27.52;7.65;;;;;;;3.19;100.00;103258.34;4741879;30;20377;-80
2022/02/28 06:51:06;;;;;;;22.58;6.85;;;;;;;3.23;100.00;103267.84;4744071;30;20127;-80
2022/02/28 06:53:32;;;;;;;18.92;6.68;;;;;;;3.21;100.00;103261.78;4748922;30;20043;-79
2022/02/28 06:55:57;;;;;;;24.15;7.50;;;;;;;3.26;100.00;103262.34;4755624;30;20075;-79
2022/02/28 06:58:23;;;;;;;18.58;5.97;;;;;;;3.23;100.00;103265.19;4740898;30;20122;-81
2022/02/28 07:00:50;;;;;;;18.77;6.55;;;;;;;3.26;100.00;103257.00;4739767;30;20045;-79
2022/02/28 07:03:15;;;;;;;27.10;7.18;;;;;;;3.33;100.00;103257.50;4757250;30;20093;-80
2022/02/28 07:05:47;;;;;;;21.98;7.85;;;;;;;3.36;100.00;103267.97;4744094;30;20368;-79
2022/02/28 07:08:13;;;;;;;18.50;6.10;;;;;;;3.36;100.00;103262.66;4755525;30;20051;-80
2022/02/28 07:10:38;;;;;;;25.38;6.70;;;;;;;3.40;100.00;103271.31;4757907;30;20028;-79
2022/02/28 07:13:05;;;;;;;20.42;6.35;;;;;;;3.35;100.00;103258.28;4758563;30;20119;-80
2022/02/28 07:15:30;;;;;;;23.83;6.85;;;;;;;3.43;100.00;103266.66;4746970;30;20032;-80
2022/02/28 07:17:55;;;;;;;22.58;6.70;;;;;;;3.43;100.00;103277.31;4750258;30;20024;-80
2022/02/28 07:20:21;;;;;;;26.55;6.72;;;;;;;3.30;100.00;103245.22;4745955;30;20032;-83
2022/02/28 07:22:46;;;;;;;21.70;7.05;;;;;;;3.39;100.00;103274.94;4756619;30;20026;-80
2022/02/28 07:25:12;;;;;;;20.65;7.05;;;;;;;3.46;100.00;103276.25;4741738;30;20051;-79
2022/02/28 07:27:37;;;;;;;19.80;6.70;;;;;;;3.38;100.00;103265.19;4749250;30;20052;-79
2022/02/28 07:30:03;;;;;;;21.73;6.53;;;;;;;3.39;100.00;103267.78;4731444;30;20028;-80
2022/02/28 07:32:28;;;;;;;24.55;6.97;;;;;;;3.51;100.00;103276.88;4739916;30;20577;-80
2022/02/28 07:34:54;;;;;;;19.90;6.68;;;;;;;3.50;100.00;103283.97;4732463;30;20044;-80
2022/02/28 07:37:19;;;;;;;24.40;7.35;;;;;;;3.43;100.00;103268.47;4751687;30;20550;-80
2022/02/28 07:39:45;;;;;;;19.40;6.70;;;;;;;3.52;100.00;103290.06;4737484;30;20040;-78
2022/02/28 07:42:10;;;;;;;19.50;6.82;;;;;;;3.60;100.00;103296.72;4744448;30;20043;-80
2022/02/28 07:44:35;;;;;;;20.80;6.40;;;;;;;3.59;100.00;103293.22;4751004;30;20051;-80
2022/02/28 07:47:01;;;;;;;26.45;6.78;;;;;;;3.59;100.00;103289.69;4736564;30;20040;-80
2022/02/28 07:49:33;;;;;;;19.23;6.53;;;;;;;3.56;100.00;103296.06;4769828;30;20046;-80
2022/02/28 07:52:00;;;;;;;18.23;6.95;;;;;;;3.48;100.00;103275.22;4747366;30;20039;-81
2022/02/28 07:54:25;;;;;;;20.48;6.68;;;;;;;3.56;100.00;103293.41;4772412;30;20038;-80
2022/02/28 07:56:51;;;;;;;19.05;6.70;;;;;;;3.60;100.00;103284.28;4761895;30;20128;-79
2022/02/28 07:59:16;;;;;;;16.13;6.93;;;;;;;3.65;100.00;103278.69;4752708;30;20056;-79
2022/02/28 08:01:41;;;;;;;24.88;7.53;;;;;;;3.63;100.00;103278.75;4734218;30;21786;-79
2022/02/28 08:04:07;;;;;;;19.15;7.85;;;;;;;3.64;100.00;103282.28;4768514;30;20032;-79
2022/02/28 08:06:32;;;;;;;21.55;7.82;;;;;;;3.63;100.00;103281.41;4761767;30;20033;-79
2022/02/28 08:08:57;;;;;;;19.88;8.07;;;;;;;3.60;100.00;103284.28;4749063;30;20062;-81
2022/02/28 08:11:23;;;;;;;19.48;7.72;;;;;;;3.53;100.00;103277.59;4755670;29;20040;-80
2022/02/28 08:13:48;;;;;;;19.67;7.65;;;;;;;3.61;100.00;103287.78;4753255;30;20040;-80
2022/02/28 08:16:14;;;;;;;21.35;8.10;;;;;;;3.65;100.00;103282.19;4742471;30;20037;-79
2022/02/28 08:18:41;;;;;;;21.45;8.05;;;;;;;3.68;100.00;103282.00;4748010;30;20087;-80
2022/02/28 08:21:06;;;;;;;19.77;7.80;;;;;;;3.72;100.00;103293.34;4743170;30;20037;-81
2022/02/28 08:23:32;;;;;;;18.95;7.25;;;;;;;3.74;100.00;103278.97;4748188;30;20040;-82
2022/02/28 08:25:57;;;;;;;14.90;7.20;;;;;;;3.63;100.00;103257.47;4743129;30;20044;-78
2022/02/28 08:28:24;;;;;;;17.33;7.47;;;;;;;3.76;100.00;103268.22;4743343;30;20064;-78
2022/02/28 08:30:49;;;;;;;17.70;7.47;;;;;;;3.76;100.00;103257.56;4743117;30;20043;-80
2022/02/28 08:33:15;;;;;;;13.80;6.80;;;;;;;3.95;100.00;103279.47;4755357;30;20032;-81
2022/02/28 08:35:41;;;;;;;18.23;6.65;;;;;;;3.95;100.00;103265.28;4752881;30;20510;-80
2022/02/28 08:38:06;;;;;;;19.13;6.65;;;;;;;3.99;100.00;103250.81;4745993;30;20037;-81
2022/02/28 08:40:31;;;;;;;17.25;6.35;;;;;;;4.12;100.00;103274.88;4744847;30;20045;-80
2022/02/28 08:42:57;;;;;;;16.67;6.32;;;;;;;4.06;100.00;103257.47;4741338;30;20136;-80
2022/02/28 08:45:23;;;;;;;15.85;6.63;;;;;;;4.04;100.00;103256.72;4746440;30;20060;-83
2022/02/28 08:47:48;;;;;;;17.13;6.63;;;;;;;4.20;100.00;103275.25;4758418;30;20040;-81
2022/02/28 08:50:16;;;;;;;18.70;6.35;;;;;;;4.25;100.00;103281.16;4760605;30;20049;-79
2022/02/28 08:52:42;;;;;;;16.70;6.05;;;;;;;4.11;100.00;103255.38;4764806;30;20036;-80
2022/02/28 08:55:08;;;;;;;17.05;5.90;;;;;;;4.27;100.00;103273.91;4739243;30;20118;-79
2022/02/28 08:57:34;;;;;;;13.35;5.32;;;;;;;4.34;100.00;103277.91;4750116;30;20068;-80
2022/02/28 08:59:59;;;;;;;12.93;5.32;;;;;;;4.35;100.00;103276.09;4744073;30;20040;-79
2022/02/28 09:02:25;;;;;;;13.48;5.32;;;;;;;4.29;100.00;103277.34;4741101;30;20036;-80
2022/02/28 09:04:50;;;;;;;13.18;5.22;;;;;;;4.30;100.00;103278.19;4753241;30;20044;-82
2022/02/28 09:07:16;;;;;;;12.80;4.85;;;;;;;4.23;100.00;103273.25;4756727;30;20096;-80
2022/02/28 09:09:41;;;;;;;11.38;4.40;;;;;;;4.33;100.00;103291.31;4753032;30;20037;-81
2022/02/28 09:12:07;;;;;;;12.07;5.07;;;;;;;4.35;100.00;103278.78;4755987;30;20032;-80
2022/02/28 09:14:33;;;;;;;11.82;4.88;;;;;;;4.35;100.00;103289.44;4763978;30;20032;-80
2022/02/28 09:16:58;;;;;;;15.65;5.47;;;;;;;4.37;100.00;103288.38;4753371;30;20043;-80
2022/02/28 09:19:24;;;;;;;12.27;4.38;;;;;;;4.23;100.00;103270.59;4746022;30;20048;-80
2022/02/28 09:21:53;;;;;;;13.77;4.80;;;;;;;4.40;100.00;103284.66;4755170;30;20036;-81
2022/02/28 09:24:18;;;;;;;12.45;4.80;;;;;;;4.38;100.00;103262.59;4772945;30;20051;-79
2022/02/28 09:26:45;;;;;;;18.65;5.25;;;;;;;4.32;100.00;103246.97;4760424;30;20452;-81
2022/02/28 09:29:12;;;;;;;12.52;4.70;;;;;;;4.55;100.00;103291.69;4764570;30;20040;-81
2022/02/28 09:31:38;;;;;;;13.32;4.35;;;;;;;4.57;100.00;103292.44;4762179;30;20035;-80
2022/02/28 09:34:03;;;;;;;16.30;4.63;;;;;;;4.59;100.00;103282.50;4761807;30;20048;-81
2022/02/28 09:36:29;;;;;;;13.38;4.45;;;;;;;4.64;100.00;103291.09;4747038;30;20124;-80
2022/02/28 09:38:54;;;;;;;13.00;4.35;;;;;;;4.66;100.00;103293.66;4739590;30;20049;-80
2022/02/28 09:41:20;;;;;;;11.48;4.25;;;;;;;4.56;100.00;103264.03;4753068;30;20127;-80
2022/02/28 09:43:47;;;;;;;12.10;3.92;;;;;;;4.68;100.00;103295.25;4743320;30;20033;-80
2022/02/28 09:46:13;;;;;;;11.48;3.80;;;;;;;4.72;100.00;103290.59;4742016;30;20066;-80
2022/02/28 09:48:39;;;;;;;9.48;3.78;;;;;;;4.70;100.00;103280.03;4754804;30;20463;-80
2022/02/28 09:51:05;;;;;;;10.80;4.03;;;;;;;4.60;100.00;103275.38;4746407;30;20040;-81
2022/02/28 09:53:30;;;;;;;12.70;3.63;;;;;;;4.79;100.00;103285.69;4747504;30;20060;-80
2022/02/28 09:55:56;;;;;;;13.10;3.47;;;;;;;4.76;100.00;103280.56;4750752;30;20032;-81
2022/02/28 09:58:32;;;;;;;8.40;2.63;;;;;;;4.79;100.00;103301.72;4753209;30;20040;-81
2022/02/28 10:00:59;;;;;;;9.57;3.20;;;;;;;4.89;100.00;103298.34;4742388;30;20067;-80
2022/02/28 10:03:26;;;;;;;11.63;3.50;;;;;;;4.86;100.00;103295.00;4741428;30;20372;-81
2022/02/28 10:05:59;;;;;;;12.43;3.47;;;;;;;4.96;100.00;103296.13;4742937;30;20053;-81
2022/02/28 10:08:25;;;;;;;11.57;3.30;;;;;;;4.96;100.00;103293.44;4758507;30;20361;-79
2022/02/28 10:10:51;;;;;;;9.95;3.30;;;;;;;5.02;100.00;103292.19;4751204;30;20036;-80
2022/02/28 10:13:37;;;;;;;14.63;3.30;;;;;;;4.93;100.00;103288.31;4753603;30;20043;-81
2022/02/28 10:16:03;;;;;;;7.93;2.83;;;;;;;5.06;100.00;103288.38;4767443;29;20040;-81
2022/02/28 10:18:29;;;;;;;9.65;2.85;;;;;;;5.22;100.00;103305.06;4759005;30;20108;-80
2022/02/28 10:20:55;;;;;;;9.00;3.17;;;;;;;5.25;100.00;103309.34;4751999;30;20191;-81
2022/02/28 10:23:23;;;;;;;8.85;2.70;;;;;;;5.21;100.00;103299.84;4748005;30;20096;-80
2022/02/28 10:25:51;;;;;;;9.15;2.90;;;;;;;5.30;100.00;103296.56;4745310;30;20119;-80
2022/02/28 10:28:21;;;;;;;11.05;2.88;;;;;;;5.35;100.00;103318.44;4741925;30;20090;-80
2022/02/28 10:30:56;;;;;;;15.30;3.40;;;;;;;5.36;100.00;103309.47;4741768;30;20119;-80
2022/02/28 10:33:28;;;;;;;12.20;3.55;;;;;;;5.35;100.00;103307.78;4737758;30;20369;-80
2022/02/28 10:35:59;;;;;;;15.80;3.00;;;;;;;5.26;100.00;103290.53;4750757;30;20483;-81
2022/02/28 10:38:29;;;;;;;12.35;3.60;;;;;;;5.30;100.00;103317.91;4749870;30;20036;-80
2022/02/28 10:40:55;;;;;;;11.13;3.33;;;;;;;5.34;100.00;103316.75;4749503;30;20647;-83
2022/02/28 10:43:48;;;;;;;9.80;3.65;;;;;;;5.27;100.00;103310.97;4750502;30;20073;-82
2022/02/28 10:46:47;;;;;;;12.02;3.38;;;;;;;5.30;100.00;103310.75;4744483;30;20040;-81
2022/02/28 10:49:30;;;;;;;12.95;3.67;;;;;;;5.45;100.00;103316.00;4756550;30;20109;-81
2022/02/28 10:51:56;;;;;;;14.57;3.47;;;;;;;5.31;100.00;103327.63;4770964;30;20154;-82
2022/02/28 10:54:26;;;;;;;11.40;3.70;;;;;;;5.36;100.00;103326.38;4757453;30;20109;-81
2022/02/28 10:56:53;;;;;;;13.55;3.72;;;;;;;5.35;100.00;103307.78;4754662;30;20135;-80
2022/02/28 10:59:19;;;;;;;12.57;3.90;;;;;;;5.33;100.00;103291.00;4756902;30;20531;-81
2022/02/28 11:01:45;;;;;;;12.55;3.97;;;;;;;5.50;100.00;103312.09;4748381;30;20221;-80
2022/02/28 11:04:11;;;;;;;10.52;3.80;;;;;;;5.62;100.00;103305.88;4765984;29;20070;-81
2022/02/28 11:06:37;;;;;;;11.55;3.33;;;;;;;5.60;100.00;103304.31;4752333;30;20048;-82
2022/02/28 11:09:04;;;;;;;12.43;4.07;;;;;;;5.53;100.00;103298.53;4756795;30;20070;-81
2022/02/28 11:11:30;;;;;;;14.43;4.22;;;;;;;5.72;100.00;103302.59;4741437;30;20060;-80